Titonka, Iowa
Current Conditions -  °F | °C
As of 11:35 PM on Thursday 27 Nov 2014 (Local Time) from KAXA Reporting Station
Broken Clouds Broken Clouds  
Wind Chill: -8°   Ceiling: 7000
Heat Index: 10°   Visibility: 10mi
Dew Point:   Wind: 20mph
Humidity: 62%   Direction: 150°SSE
Pressure: 30.18"   Gusts: NA
Location:  43.24°N, 94.04°W
Report Text: KAXA 280535Z AUTO 15017KT 10SM FEW046 SCT055 BKN070 M12/M18 A3018 RMK AO2
Loading
Personal Weather Stations






























Interactive Weather Map New forecast layout! Learn more

10-Day Weather Forecast

Advertisements
Track Severe Weather on mobile